Terminal Aerodrome Forecast
Issued by NWS

Home | Current Version | Previous Version | Text Only | Print | Product List | Glossary On
Versions: 1 2 3 4 5 6 7 8 9 10 11 12 13 14 15 16 17 18 19 20 21 22 23 24 25
000
FTUS41 KALY 280856 AAB
TAFPSF
TAF AMD
KPSF 280856Z 2809/2906 00000KT P6SM BKN050
      TEMPO 2809/2813 1/2SM FG BKN002 BKN050
     FM281300 19007KT P6SM FEW100 SCT200
     FM281800 20008KT P6SM SCT050 BKN150=

USA.gov is the U.S. government's official web portal to all federal, state and local government web resources and services.